Date,TemperatureHighF,TemperatureAvgF,TemperatureLowF,DewpointHighF,DewpointAvgF,DewpointLowF,HumidityHigh,HumidityAvg,HumidityLow,PressureMaxIn,PressureMinIn,WindSpeedMaxMPH,WindSpeedAvgMPH,GustSpeedMaxMPH,PrecipitationSumIn
2013-1-1,44.1,40.5,35.8,41.6,39.6,35.5,99,96,91,30.67,30.03,7,3,15,0.01
2013-1-2,52.9,47.0,41.5,52.6,46.7,40.4,99,99,95,30.78,30.65,9,3,22,0.09
2013-1-3,52.9,51.5,49.6,52.6,51.1,49.4,99,99,94,31.15,30.78,9,4,19,0.00
2013-1-4,51.6,49.9,47.5,51.4,49.6,47.2,99,99,96,31.20,31.14,6,2,15,0.00
2013-1-5,51.3,49.5,46.0,50.6,49.0,45.8,99,98,94,31.18,31.00,4,2,14,0.00
2013-1-6,50.5,45.5,40.5,50.3,45.2,40.2,99,99,96,31.18,30.92,3,1,11,0.01
2013-1-7,48.9,48.5,47.8,48.7,48.3,47.6,99,99,99,30.92,30.76,3,1,9,0.18
2013-1-8,52.7,47.1,41.4,52.4,46.9,41.1,99,99,98,30.89,30.69,7,2,17,0.04
2013-1-9,45.5,41.1,37.4,45.2,40.9,37.1,99,99,99,30.90,30.79,4,1,10,0.01
2013-1-10,40.5,37.9,33.8,40.2,37.7,33.6,99,99,99,30.80,30.70,2,1,6,0.04
2013-1-11,42.4,38.6,35.1,42.2,38.3,34.8,99,99,99,30.77,30.70,3,0,7,0.01
2013-1-12,39.9,35.7,32.2,37.7,35.1,31.9,99,98,87,30.88,30.69,4,1,9,0.01
2013-1-13,36.9,34.5,31.8,36.6,34.2,31.6,99,99,99,30.89,30.72,2,0,6,0.05
2013-1-14,38.7,35.7,32.7,37.5,34.7,31.0,99,96,87,30.72,30.48,5,1,11,0.01
2013-1-15,36.7,32.6,26.2,36.4,32.3,26.0,99,99,97,30.67,30.57,4,0,8,0.02
2013-1-16,34.9,30.8,26.1,31.8,28.9,25.8,99,92,80,30.72,30.60,1,0,3,0.00
2013-1-17,35.1,33.2,32.0,30.9,28.8,25.2,92,84,71,30.76,30.55,5,1,11,0.00
2013-1-18,34.9,32.5,30.7,31.9,27.6,23.6,99,82,69,30.56,30.32,8,3,20,0.01
2013-1-19,38.3,34.0,31.8,35.4,32.9,29.8,99,96,86,30.49,30.34,7,3,15,0.02
2013-1-20,35.8,34.7,33.8,33.1,29.9,26.9,95,83,75,30.48,30.29,8,4,17,0.01
2013-1-21,36.1,34.8,33.8,35.4,33.7,29.3,99,96,77,30.29,30.23,15,7,30,0.14
2013-1-22,36.1,35.2,33.3,35.9,34.8,33.0,99,98,94,30.60,30.27,9,3,19,0.01
2013-1-23,37.6,35.2,32.7,35.9,34.3,31.6,99,97,90,30.72,30.60,3,1,8,0.00
2013-1-24,38.3,35.7,34.2,38.0,33.3,29.3,99,91,77,30.83,30.70,3,1,9,0.00
2013-1-25,38.1,35.6,33.8,37.1,33.4,29.6,99,92,78,30.71,30.14,3,1,9,0.17
2013-1-26,46.6,39.2,34.3,46.3,38.4,34.1,99,97,86,30.30,29.70,6,2,14,0.08
2013-1-27,48.6,41.4,37.0,48.3,41.0,36.8,99,98,91,29.94,29.50,9,4,21,0.13
2013-1-28,45.5,41.3,37.0,45.2,40.4,36.8,99,97,85,30.08,29.62,8,4,21,0.28
2013-1-29,51.8,45.8,43.2,51.5,44.4,39.1,99,95,78,30.07,29.68,11,4,23,0.33
2013-1-30,44.2,42.4,40.1,42.0,39.7,36.0,99,90,75,30.40,29.86,11,5,26,0.07
2013-1-31,44.8,41.0,37.8,42.5,40.2,37.5,99,97,90,30.40,29.94,12,4,29,0.19
2013-2-1,42.8,38.8,34.3,42.5,37.2,31.3,99,94,84,30.57,30.09,6,2,14,0.09
2013-2-2,40.5,35.6,32.9,34.4,30.6,27.9,94,82,62,30.94,30.57,5,2,12,0.00
2013-2-3,49.1,44.7,35.1,48.1,42.8,34.2,99,93,79,30.76,30.20,11,5,24,0.02
2013-2-4,49.3,38.0,32.9,49.0,37.0,31.6,99,96,79,30.30,30.06,15,6,28,0.18
2013-2-5,43.3,37.6,31.6,41.1,35.8,31.2,99,93,81,30.33,29.80,9,4,20,0.01
2013-2-6,41.0,38.4,35.8,36.6,31.0,27.0,86,75,64,30.89,30.33,8,5,19,0.00
2013-2-7,41.4,36.3,32.5,37.4,33.0,27.0,99,88,70,30.89,30.75,5,1,11,0.00
2013-2-8,45.1,39.0,33.8,38.8,36.2,33.6,99,90,71,30.92,30.82,4,1,10,0.04
2013-2-9,40.5,38.7,37.2,40.2,38.5,37.0,99,99,99,30.88,30.56,4,1,8,0.04
2013-2-10,39.4,37.8,36.5,39.1,37.1,34.6,99,97,90,30.56,30.17,8,4,18,0.06
2013-2-11,41.9,37.6,34.5,37.9,33.2,28.7,99,84,69,30.71,30.25,9,4,17,0.04
2013-2-12,38.8,36.3,33.8,32.3,30.8,29.4,92,80,71,30.85,30.71,4,2,11,0.00
2013-2-13,43.2,35.9,31.3,42.9,34.8,29.0,99,96,81,30.84,30.26,4,1,15,0.30
2013-2-14,48.4,44.1,41.4,46.5,43.0,41.1,99,96,85,30.55,30.29,7,3,16,0.01
2013-2-15,50.9,43.5,35.2,43.8,40.9,35.0,99,91,73,30.86,30.57,5,2,13,0.00
2013-2-16,49.3,40.8,34.9,47.1,40.4,34.6,99,98,91,30.88,30.83,2,0,7,0.00
2013-2-17,53.8,43.2,31.8,45.1,39.8,31.6,99,89,59,30.88,30.81,2,0,7,0.00
2013-2-18,50.0,35.3,27.9,43.8,33.6,27.6,99,94,70,30.88,30.83,2,0,4,0.00
2013-2-19,47.7,36.2,27.1,41.8,35.2,26.9,99,96,66,30.91,30.86,4,1,8,0.00
2013-2-20,43.0,39.3,32.0,42.4,36.8,28.8,99,91,78,31.08,30.90,6,2,14,0.00
2013-2-21,39.4,34.3,29.3,30.4,27.2,24.5,92,76,60,31.10,31.05,6,2,12,0.00
2013-2-22,37.8,34.8,33.3,29.8,26.1,22.6,85,70,63,31.09,31.04,3,1,8,0.00
2013-2-23,46.8,35.8,32.0,36.1,30.3,24.5,99,81,49,31.16,31.03,5,1,10,0.00
2013-2-24,48.2,36.8,32.4,44.2,36.0,32.1,99,97,75,31.24,31.16,5,0,13,0.05
2013-2-25,46.2,36.5,29.3,44.3,35.4,29.1,99,96,80,31.40,31.23,4,1,8,0.01
2013-2-26,44.4,38.4,34.3,41.6,37.7,34.1,99,97,82,31.46,31.39,6,1,10,0.00
2013-2-27,45.5,36.3,32.0,42.3,35.7,31.8,99,98,82,31.46,31.36,4,1,8,0.00
2013-2-28,45.3,37.2,29.5,45.1,36.9,29.2,99,99,95,31.36,31.28,2,0,5,0.01
2013-3-1,49.6,40.7,33.3,47.2,37.1,32.6,99,88,59,31.33,31.20,5,1,11,0.00
2013-3-2,57.4,43.6,30.4,46.6,40.3,30.1,99,89,67,31.21,31.01,4,1,8,0.00
2013-3-3,50.2,44.6,41.4,47.0,41.8,37.5,99,90,73,31.03,30.83,3,0,6,0.00
2013-3-4,50.0,41.7,32.9,39.1,37.2,32.7,99,85,60,30.84,30.50,4,1,10,0.00
2013-3-5,54.3,39.2,30.6,42.5,36.1,30.3,99,90,55,30.50,30.41,5,1,10,0.00
2013-3-6,41.5,39.9,37.9,41.3,39.3,37.1,99,98,94,30.48,30.42,8,3,15,0.00
2013-3-7,42.1,41.2,40.3,41.8,40.9,40.0,99,99,99,30.41,30.33,8,4,24,0.12
2013-3-8,40.8,39.4,38.5,40.6,39.2,38.2,99,99,99,30.48,30.33,12,7,22,0.08
2013-3-9,39.4,38.3,37.0,39.1,36.0,28.5,99,92,69,30.68,30.48,11,6,27,0.13
2013-3-10,38.1,34.1,28.4,35.2,29.8,25.5,99,85,64,30.88,30.66,13,5,27,0.09
2013-3-11,35.1,29.8,25.7,31.3,25.1,20.5,99,84,58,30.91,30.15,7,3,18,0.04
2013-3-12,46.2,34.6,23.9,33.3,27.2,19.5,89,75,53,30.15,29.91,6,2,11,0.00
2013-3-13,50.2,37.9,30.4,32.0,27.9,23.0,87,69,41,30.01,29.88,4,1,10,0.01
2013-3-14,46.9,37.6,28.4,41.9,35.1,25.0,99,91,80,30.01,29.58,4,1,10,0.00
2013-3-15,51.6,42.0,34.7,43.3,38.9,33.6,99,89,67,29.58,29.37,6,2,14,0.00
2013-3-16,37.9,35.5,32.7,37.7,35.2,32.5,99,99,99,29.40,29.20,5,1,11,0.15
2013-3-17,42.4,37.8,33.3,40.7,37.4,33.0,99,98,89,29.26,29.12,8,2,17,0.18
2013-3-18,39.7,36.8,33.1,39.5,36.5,32.8,99,99,95,29.54,29.26,11,6,28,0.11
2013-3-19,35.8,34.8,33.4,35.5,34.6,33.2,99,99,99,29.69,29.54,11,6,24,0.32
2013-3-20,39.7,35.5,31.1,36.6,33.7,30.7,99,93,75,30.09,29.68,7,3,13,0.01
2013-3-21,39.4,34.7,29.3,33.8,30.5,27.6,99,85,65,30.12,30.03,10,4,21,0.00
2013-3-22,36.1,35.1,33.1,33.3,31.1,29.5,98,85,78,30.05,29.98,14,8,27,0.00
2013-3-23,34.5,34.1,33.4,32.7,28.5,23.8,95,80,66,30.23,30.05,13,8,27,0.01
2013-3-24,36.7,34.6,33.4,28.6,26.3,24.2,78,71,61,30.33,30.22,13,7,24,0.00
2013-3-25,36.9,35.0,34.0,30.7,27.6,24.1,87,74,63,30.34,30.28,11,6,20,0.00
2013-3-26,38.1,34.5,32.2,33.4,29.4,24.2,99,82,65,30.29,30.19,9,4,17,0.00
2013-3-27,40.6,34.6,31.3,34.6,31.4,25.9,99,89,65,30.19,30.12,8,3,17,0.17
2013-3-28,41.5,36.4,32.7,34.1,30.6,25.6,99,80,57,30.14,30.07,8,3,15,0.01
2013-3-29,43.2,36.3,30.0,39.0,31.2,26.9,99,83,58,30.07,29.95,8,2,14,0.01
2013-3-30,48.6,34.8,26.4,36.4,29.9,24.7,99,83,52,30.04,29.98,4,1,8,0.00
2013-3-31,43.7,34.7,25.0,33.3,26.6,22.1,99,75,42,30.05,29.99,4,1,10,0.00
2013-4-1,42.3,35.4,27.0,30.2,25.5,22.1,87,68,51,30.11,30.02,6,3,14,0.00
2013-4-2,45.1,38.7,32.5,37.1,31.3,25.3,99,75,49,30.27,30.11,6,2,12,0.00
2013-4-3,47.7,38.4,26.4,41.6,31.5,26.2,99,79,50,30.34,30.27,6,1,11,0.00
2013-4-4,46.6,40.8,34.7,39.3,35.5,28.5,99,82,49,30.31,30.25,8,3,15,0.00
2013-4-5,46.4,39.2,30.9,38.4,30.6,25.7,99,73,49,30.29,30.24,5,2,13,0.01
2013-4-6,54.9,40.8,28.2,40.7,31.5,25.6,95,72,39,30.29,30.19,6,2,12,0.00
2013-4-7,42.4,38.1,35.2,40.1,36.4,31.1,99,94,79,30.21,30.01,9,3,18,0.00
2013-4-8,43.9,38.7,35.4,36.9,32.3,23.9,99,79,51,30.01,29.77,8,4,17,0.00
2013-4-9,44.6,39.8,34.7,38.3,31.3,25.0,97,72,56,29.78,29.70,9,4,17,0.00
2013-4-10,42.3,39.5,37.0,42.0,39.2,36.0,99,99,96,29.72,29.62,6,2,11,0.02
2013-4-11,44.4,40.6,36.7,42.3,38.5,34.2,99,92,79,29.62,29.43,6,2,12,0.00
2013-4-12,44.6,40.3,36.9,42.2,39.1,34.4,99,95,88,29.65,29.40,5,2,11,0.01
2013-4-13,56.1,46.3,39.2,50.1,42.1,37.6,99,87,50,29.75,29.44,6,2,12,0.01
2013-4-14,60.3,54.2,50.7,54.4,51.2,48.3,99,90,70,29.47,29.37,8,4,20,0.15
2013-4-15,60.8,52.4,47.5,54.6,48.9,44.7,99,88,65,29.73,29.42,8,3,23,0.08
2013-4-16,55.8,50.3,44.1,50.0,45.0,35.9,99,83,55,29.81,29.35,12,5,27,0.05
2013-4-17,57.2,47.0,39.9,55.3,45.7,38.6,99,95,81,29.84,29.10,8,3,27,0.26
2013-4-18,55.0,49.1,43.7,47.2,45.1,41.5,99,87,65,29.90,29.06,12,5,26,0.08
2013-4-19,62.6,50.0,37.8,44.5,38.6,34.1,99,69,39,30.43,29.90,5,2,11,0.00
2013-4-20,61.2,49.9,38.1,45.7,40.6,36.0,99,72,51,30.43,30.13,4,2,16,0.00
2013-4-21,59.9,48.5,41.9,50.1,44.0,38.9,99,85,51,30.13,29.83,9,2,17,0.02
2013-4-22,57.9,48.2,40.1,52.2,44.3,39.8,99,87,58,29.85,29.57,14,4,28,0.00
2013-4-23,59.5,50.4,45.3,47.9,43.1,39.3,99,77,52,30.04,29.70,11,5,24,0.01
2013-4-24,57.9,49.7,44.1,52.3,43.4,36.0,99,81,51,30.21,29.86,8,3,18,0.20
2013-4-25,55.6,46.5,40.8,46.4,40.6,36.8,99,81,57,30.20,30.01,8,2,17,0.01
2013-4-26,57.4,43.8,36.9,46.3,38.7,36.1,99,83,50,30.03,29.84,8,2,17,0.05
2013-4-27,62.4,48.4,39.0,40.3,33.7,24.3,97,61,24,30.15,29.96,7,2,17,0.00
2013-4-28,56.5,47.0,39.6,48.7,40.7,34.1,99,80,58,29.95,29.59,11,5,24,0.01
2013-4-29,57.0,47.5,39.7,41.8,37.7,30.3,97,72,41,30.08,29.59,14,6,27,0.00
2013-4-30,62.4,50.1,37.4,42.2,32.7,20.1,95,58,20,30.31,30.09,8,2,17,0.00
2013-5-1,58.6,48.9,41.2,50.5,39.6,30.9,99,73,37,30.27,30.09,14,4,27,0.01
2013-5-2,59.2,48.4,34.2,47.0,39.0,27.2,99,73,31,30.28,29.99,4,1,15,0.00
2013-5-3,55.8,50.5,42.6,54.8,49.7,42.4,99,97,85,29.99,29.63,11,3,21,0.20
2013-5-4,54.7,47.0,37.4,45.4,41.2,35.4,99,81,53,29.88,29.69,9,4,24,0.00
2013-5-5,66.4,56.1,48.0,57.8,51.8,45.3,99,86,64,30.02,29.87,8,3,18,0.00
2013-5-6,67.1,56.0,48.0,55.8,51.7,47.1,99,86,64,30.04,29.99,6,2,14,0.00
2013-5-7,64.9,53.8,41.5,51.9,46.8,41.3,99,79,53,30.07,29.86,8,2,15,0.00
2013-5-8,59.4,50.8,46.6,56.0,48.9,43.9,99,93,70,29.86,29.47,9,4,20,0.02
2013-5-9,56.8,49.5,42.6,47.4,43.7,37.6,99,83,50,29.52,29.33,8,2,15,0.09
2013-5-10,61.3,50.3,42.1,51.9,47.0,41.8,99,90,61,29.62,29.36,10,3,19,0.06
2013-5-11,54.3,47.8,41.7,52.4,45.7,41.5,99,93,77,29.72,29.46,12,4,27,0.02
2013-5-12,57.2,49.7,41.9,53.0,46.9,41.1,99,91,64,29.78,29.56,9,3,21,0.05
2013-5-13,52.7,44.6,34.9,47.3,41.7,34.6,99,90,71,29.61,29.41,11,4,26,0.17
2013-5-14,58.3,48.0,40.8,48.3,42.6,39.6,99,83,55,29.41,29.34,8,3,23,0.04
2013-5-15,53.6,44.9,36.5,51.8,42.3,36.2,99,91,65,29.41,29.28,11,1,17,0.12
2013-5-16,59.5,49.0,37.9,48.0,42.3,36.5,99,80,46,29.69,29.38,6,2,13,0.00
2013-5-17,68.5,52.5,41.2,50.7,42.9,38.4,99,73,40,29.86,29.69,4,1,11,0.00
2013-5-18,53.8,50.7,48.7,53.5,50.1,45.0,99,98,80,29.85,29.71,8,3,21,0.51
2013-5-19,64.2,51.6,47.1,62.2,51.2,46.9,99,99,89,29.96,29.80,5,1,14,0.02
2013-5-20,79.7,61.2,50.9,69.6,58.6,50.6,99,92,64,30.02,29.89,5,1,14,0.02
2013-5-21,68.4,56.0,46.0,61.8,50.8,45.8,99,84,58,30.08,30.01,4,1,11,0.01
2013-5-22,62.4,52.8,43.5,49.1,42.0,33.4,97,70,34,30.08,30.00,14,5,26,0.00
2013-5-23,54.5,46.5,40.3,43.3,36.2,33.7,88,68,49,30.01,29.91,11,6,24,0.00
2013-5-24,55.0,49.1,43.2,45.9,41.0,35.1,99,74,62,30.22,29.92,9,4,17,0.00
2013-5-25,70.0,56.3,36.7,50.7,42.6,36.1,99,65,34,30.22,30.11,6,2,14,0.00
2013-5-26,68.9,55.4,41.4,53.6,47.1,39.4,96,74,53,30.14,29.75,6,2,13,0.00
2013-5-27,58.5,52.6,48.2,49.5,47.3,42.6,95,83,69,29.74,29.43,6,2,19,0.00
2013-5-28,56.3,51.3,46.2,50.8,48.2,45.1,99,89,69,29.80,29.52,8,2,15,0.00
2013-5-29,67.8,56.1,43.7,57.1,50.7,43.4,99,83,60,29.92,29.79,4,1,10,0.00
2013-5-30,68.9,58.9,50.5,55.4,50.1,44.4,99,73,54,30.08,29.89,4,2,11,0.00
2013-5-31,72.5,58.8,46.6,59.5,52.3,46.3,99,82,49,30.09,30.06,9,2,17,0.00
2013-6-1,66.4,55.5,45.7,50.7,44.3,38.2,91,67,46,30.28,30.18,7,3,11,0.00
2013-6-2,74.1,62.3,41.2,49.9,45.3,40.9,99,57,35,30.43,30.29,7,2,11,0.00
2013-6-3,77.9,60.7,45.1,60.6,53.7,44.3,99,79,52,30.49,30.42,4,1,7,0.00
2013-6-4,66.4,58.8,51.1,56.5,52.1,48.6,99,80,59,30.50,30.32,5,2,12,0.00
2013-6-5,60.4,52.6,49.5,56.7,51.9,49.2,99,98,82,30.32,30.17,5,2,12,0.00
2013-6-6,69.3,57.1,49.3,56.4,52.6,49.0,99,86,59,30.25,30.18,5,2,10,0.00
2013-6-7,60.6,54.0,46.0,55.8,51.9,45.8,99,93,78,30.35,30.25,7,2,13,0.00
2013-6-8,69.1,57.3,44.4,56.8,51.4,44.2,99,83,54,30.33,30.14,7,2,16,0.00
2013-6-9,60.6,54.3,49.5,55.6,52.4,49.2,99,94,80,30.15,30.01,8,3,14,0.01
2013-6-10,59.9,53.8,50.2,54.8,51.8,49.9,99,93,80,30.03,29.91,6,3,14,0.00
2013-6-11,59.9,54.3,47.7,57.1,53.1,47.4,99,96,80,29.91,29.68,6,2,11,0.07
2013-6-12,68.2,59.2,52.3,61.8,55.6,51.5,99,89,65,29.69,29.56,7,2,13,0.07
2013-6-13,68.4,57.3,47.3,55.7,48.7,44.3,99,75,48,29.76,29.54,11,4,19,0.00
2013-6-14,73.9,59.5,46.9,53.8,50.4,46.7,99,74,47,29.79,29.58,5,2,13,0.12
2013-6-15,65.1,54.5,49.6,53.8,50.0,46.9,99,86,56,29.57,29.40,7,2,16,0.02
2013-6-16,74.1,58.4,48.2,59.8,53.4,47.9,99,85,52,29.99,29.56,4,2,11,0.00
2013-6-17,63.1,56.8,50.0,58.7,55.3,49.7,99,95,82,30.07,29.99,7,2,11,0.00
2013-6-18,70.2,59.9,54.3,63.7,56.8,54.1,99,90,68,30.02,29.90,5,1,9,0.00
2013-6-19,72.5,61.0,51.8,55.8,51.3,47.5,99,74,42,30.02,29.94,9,3,18,0.00
2013-6-20,75.0,61.1,50.7,61.0,55.1,48.2,99,82,59,30.02,29.78,6,2,10,0.00
2013-6-21,73.2,61.5,57.0,63.4,56.3,46.7,99,85,46,29.78,29.59,6,1,12,0.00
2013-6-22,68.5,57.7,52.2,61.7,54.9,51.3,99,91,64,29.59,29.28,5,1,14,0.18
2013-6-23,67.8,56.7,50.2,60.4,53.1,48.6,99,88,71,29.91,29.34,14,5,23,0.02
2013-6-24,69.1,57.5,49.5,50.5,47.9,45.0,97,72,49,30.24,29.92,8,4,19,0.00
2013-6-25,68.5,57.8,44.6,56.4,50.3,43.8,99,78,52,30.37,30.24,6,2,14,0.00
2013-6-26,76.1,60.8,49.8,54.4,50.9,47.5,99,74,40,30.42,30.37,8,2,14,0.00
2013-6-27,66.7,56.5,48.6,62.2,55.4,48.0,99,96,84,30.41,30.11,5,2,16,0.06
2013-6-28,70.9,59.2,51.1,64.7,56.0,45.5,99,90,68,30.11,29.87,10,4,21,0.17
2013-6-29,66.0,57.2,49.8,57.9,52.3,47.1,99,84,61,30.12,30.04,8,3,17,0.00
2013-6-30,71.6,60.5,52.2,62.2,56.8,49.7,99,88,62,30.07,29.83,10,4,21,0.01
2013-7-1,68.5,57.7,48.9,54.4,48.3,42.5,99,73,45,29.89,29.81,9,4,18,0.00
2013-7-2,58.3,54.5,49.8,56.4,52.5,47.1,99,93,85,29.87,29.42,3,1,11,0.08
2013-7-3,70.9,61.4,54.5,62.2,56.7,54.1,99,85,62,29.80,29.43,7,2,16,0.00
2013-7-4,67.6,61.0,54.0,66.8,56.5,50.1,99,86,65,30.12,29.70,12,4,27,0.17
2013-7-5,73.6,62.0,52.7,59.6,55.9,51.0,99,82,59,30.35,30.12,8,3,19,0.00
2013-7-6,81.3,66.9,49.5,61.9,56.7,49.2,99,73,41,30.41,30.29,6,2,14,0.00
2013-7-7,85.1,67.5,55.9,64.2,60.3,55.7,99,81,39,30.61,30.42,6,2,12,0.00
2013-7-8,68.7,60.4,54.3,63.6,58.5,54.1,99,94,76,30.64,30.46,4,1,9,0.00
2013-7-9,89.8,71.4,57.0,72.2,63.6,56.8,99,79,47,30.47,30.31,8,2,18,0.00
2013-7-10,63.9,58.6,54.9,60.6,57.3,54.6,99,96,83,30.41,30.34,6,3,12,0.00
2013-7-11,73.0,61.0,54.1,64.8,59.0,53.9,99,94,73,30.36,30.24,4,2,11,0.00
2013-7-12,88.0,73.0,54.0,71.1,63.3,53.7,99,75,45,30.26,30.18,6,2,15,0.00
2013-7-13,83.1,64.2,56.5,70.6,61.6,56.2,99,92,55,30.31,30.22,8,2,16,0.00
2013-7-14,75.9,65.4,55.4,62.5,56.1,50.8,99,75,49,30.30,30.16,8,3,18,0.00
2013-7-15,73.8,63.1,54.0,61.7,57.7,52.2,99,83,63,30.19,30.15,10,3,21,0.00
2013-7-16,79.0,69.5,60.3,67.4,62.5,58.3,99,80,58,30.22,30.16,8,3,16,0.00
2013-7-17,79.0,69.3,53.8,66.1,60.0,53.5,99,75,52,30.33,30.22,8,2,17,0.00
2013-7-18,87.3,73.1,60.1,70.7,65.5,59.8,99,79,55,30.36,30.30,8,2,15,0.00
2013-7-19,72.0,65.8,57.2,65.9,61.4,56.9,99,86,67,30.38,30.33,7,2,13,0.00
2013-7-20,68.5,61.9,57.7,63.5,60.4,57.5,99,95,82,30.36,30.28,7,3,14,0.00
2013-7-21,66.7,60.8,57.7,62.5,59.6,57.5,99,96,80,30.30,30.14,8,3,18,0.00
2013-7-22,63.0,59.7,57.6,62.7,59.4,57.3,99,99,99,30.14,29.97,7,3,13,0.00
2013-7-23,71.4,62.3,59.5,71.2,62.0,59.3,99,99,99,29.98,29.84,5,2,11,0.40
2013-7-24,71.8,65.2,59.0,71.3,64.1,58.7,99,96,83,29.89,29.84,4,1,11,0.00
2013-7-25,67.5,61.2,57.9,67.2,60.9,57.7,99,99,99,29.87,29.79,4,1,8,0.33
2013-7-26,81.1,65.6,57.0,70.1,62.6,56.8,99,91,67,29.83,29.80,7,1,18,0.05
2013-7-27,76.3,64.0,53.1,67.4,61.0,52.8,99,91,67,29.83,29.65,4,1,10,0.02
2013-7-28,69.6,60.9,56.1,67.6,60.6,55.9,99,99,91,29.64,29.51,5,1,11,0.70
2013-7-29,69.6,60.4,54.0,69.0,59.9,53.7,99,98,87,29.72,29.60,4,1,8,0.17
2013-7-30,76.5,62.5,52.0,65.9,57.5,51.7,99,86,49,29.77,29.71,8,2,17,0.05
2013-7-31,74.7,62.0,50.7,64.0,56.9,50.5,99,85,56,29.87,29.75,4,1,10,0.07
2013-8-1,75.4,64.0,58.3,70.4,63.2,58.0,99,97,80,29.75,29.59,5,1,13,0.28
2013-8-2,77.2,67.6,60.1,68.3,61.0,56.3,99,82,54,29.60,29.52,4,1,15,0.00
2013-8-3,71.8,62.6,55.8,59.8,56.8,52.3,99,83,53,29.84,29.55,11,3,28,0.01
2013-8-4,76.3,63.3,53.1,63.4,56.8,52.8,99,82,52,29.88,29.83,8,2,17,0.02
2013-8-5,66.7,58.6,52.7,64.8,57.4,52.4,99,96,73,29.86,29.73,8,1,13,0.00
2013-8-6,71.6,60.6,46.9,59.9,54.0,46.7,99,80,55,29.97,29.84,4,1,12,0.00
2013-8-7,74.7,60.6,50.2,62.0,56.4,49.9,99,88,57,30.05,29.95,4,0,8,0.00
2013-8-8,74.3,61.5,51.6,65.3,58.1,51.4,99,89,62,30.04,29.91,4,0,14,0.01
2013-8-9,73.2,62.0,54.5,65.0,57.6,51.3,99,86,60,30.09,29.85,10,3,20,0.01
2013-8-10,68.2,59.3,52.5,61.1,54.5,51.1,99,85,65,30.10,29.97,7,2,13,0.01
2013-8-11,68.0,57.7,50.9,60.9,54.2,50.6,99,89,64,29.97,29.83,11,3,22,0.04
2013-8-12,69.8,59.5,51.1,59.1,53.6,49.8,99,83,58,30.01,29.82,11,4,21,0.00
2013-8-13,70.7,59.2,49.3,57.5,52.4,49.0,99,80,53,30.13,30.00,8,3,14,0.00
2013-8-14,75.4,62.4,50.4,63.4,57.8,50.1,99,86,58,30.12,29.91,4,1,10,0.01
2013-8-15,75.0,65.1,59.9,70.0,64.1,59.6,99,97,83,29.91,29.71,8,1,17,0.11
2013-8-16,72.7,62.5,52.5,63.2,58.3,52.3,99,87,63,29.85,29.71,9,3,17,0.01
2013-8-17,73.4,61.9,54.3,68.6,59.5,54.1,99,92,67,29.82,29.36,9,3,20,0.07
2013-8-18,66.0,58.5,51.3,56.6,53.7,51.0,99,85,66,29.78,29.43,9,4,23,0.00
2013-8-19,67.1,59.0,51.3,59.6,54.6,51.0,99,86,58,30.15,29.78,11,3,25,0.00
2013-8-20,71.2,60.3,53.4,61.4,57.5,53.2,99,91,67,30.22,30.13,7,2,13,0.06
2013-8-21,75.0,64.6,57.6,67.0,62.3,57.3,99,93,71,30.13,30.01,4,1,13,0.01
2013-8-22,62.1,58.7,55.8,61.8,58.4,55.5,99,99,99,30.11,30.00,4,2,11,0.00
2013-8-23,69.3,60.7,52.9,68.3,60.4,52.6,99,99,94,30.00,29.85,4,1,8,0.00
2013-8-24,75.0,61.5,56.8,65.4,59.3,55.8,99,93,60,29.96,29.88,4,1,8,0.01
2013-8-25,68.7,60.0,51.6,65.8,59.2,51.4,99,97,83,30.15,29.96,4,1,8,0.00
2013-8-26,72.7,61.2,50.5,67.3,59.6,50.3,99,95,77,30.17,30.07,5,0,12,0.00
2013-8-27,74.8,61.4,52.5,66.0,59.4,52.3,99,94,73,30.20,30.06,7,2,14,0.00
2013-8-28,67.6,58.8,52.0,63.5,56.3,50.3,99,92,76,30.21,30.07,7,2,13,0.00
2013-8-29,67.3,59.9,51.8,63.1,58.5,50.1,99,95,82,30.07,29.98,8,3,15,0.00
2013-8-30,71.4,60.3,50.7,66.8,58.5,46.9,99,94,79,30.05,29.81,14,3,23,0.00
2013-8-31,64.9,55.7,47.8,52.8,47.8,41.7,99,77,47,30.26,30.05,11,4,26,0.00
2013-9-1,60.1,56.8,53.6,58.6,54.8,51.3,99,93,82,30.25,30.09,12,6,26,0.00
2013-9-2,70.9,63.6,58.6,65.8,62.3,58.4,99,96,83,30.22,30.06,14,6,27,0.00
2013-9-3,76.3,64.8,55.0,67.2,61.1,54.8,99,89,62,30.24,30.17,8,3,15,0.00
2013-9-4,76.1,63.1,54.1,60.7,55.5,50.6,99,79,49,30.17,29.89,4,1,14,0.00
2013-9-5,69.4,59.2,54.3,56.8,53.5,48.9,99,83,50,29.90,29.85,6,2,12,0.00
2013-9-9,67.3,56.7,50.5,57.2,52.8,50.3,99,88,67,30.14,30.01,4,1,9,0.00
2013-9-10,70.7,60.8,50.4,54.7,52.0,50.1,99,74,55,30.22,30.14,4,2,17,0.00
2013-9-11,62.8,56.3,49.6,62.5,56.0,49.4,99,99,93,30.22,30.05,4,1,9,0.11
2013-9-12,72.5,60.7,53.8,63.8,58.9,53.5,99,94,68,30.07,29.85,5,2,13,0.01
2013-9-13,56.8,52.4,48.0,54.8,51.5,47.8,99,97,80,30.09,29.95,4,1,9,0.12
2013-9-14,66.4,52.0,41.4,53.3,47.7,41.1,99,87,54,30.06,29.90,6,2,12,0.00
2013-9-15,60.1,51.5,42.4,59.3,50.0,42.2,99,95,73,29.90,29.16,13,4,30,0.21
2013-9-16,57.9,48.2,41.0,50.6,45.9,40.7,99,92,73,29.30,29.24,11,4,22,0.01
2013-9-17,59.2,50.5,45.0,50.8,47.5,44.7,99,90,70,29.37,29.25,10,4,19,0.00
2013-9-18,59.9,50.1,39.7,52.3,46.4,39.5,99,88,64,29.71,29.37,10,4,21,0.00
2013-9-19,53.6,48.7,44.4,53.3,48.4,44.2,99,99,99,29.75,29.50,5,1,12,0.20
2013-9-20,63.3,54.4,43.9,56.0,50.8,43.6,99,88,68,30.01,29.75,6,2,17,0.00
2013-9-21,64.8,58.4,52.2,64.5,58.0,51.9,99,98,94,30.08,29.99,7,2,12,0.00
2013-9-22,72.3,63.8,56.8,65.2,61.4,56.6,99,93,70,30.26,30.06,10,3,21,0.00
2013-9-23,66.9,59.3,51.1,65.8,58.9,50.8,99,99,92,30.26,30.10,4,0,8,0.00
2013-9-24,59.0,56.6,54.9,58.7,56.4,54.6,99,99,99,30.10,29.95,4,1,8,0.00
2013-9-25,54.9,53.6,50.2,54.6,53.3,49.9,99,99,93,30.04,29.89,7,2,14,0.01
2013-9-26,57.6,52.2,45.5,55.7,51.6,45.2,99,98,89,30.11,30.03,4,1,10,0.00
2013-9-27,60.3,55.1,52.2,60.0,54.8,51.9,99,99,99,30.05,29.91,2,0,4,0.02
2013-9-28,66.0,56.1,48.9,64.7,54.9,48.7,99,96,80,29.91,29.85,6,1,11,0.00
2013-9-29,63.0,55.6,50.7,57.2,52.9,50.5,99,91,72,29.92,29.88,7,3,14,0.00
2013-9-30,60.1,55.2,52.2,55.2,53.0,50.9,99,93,77,29.90,29.81,8,4,17,0.00
2013-10-1,61.7,54.5,51.4,54.4,51.8,48.6,99,91,66,29.89,29.83,7,3,14,0.00
2013-10-2,59.2,56.2,53.6,58.6,55.5,52.3,99,98,93,29.84,29.75,6,2,14,0.11
2013-10-3,67.1,58.5,54.9,66.8,58.3,54.6,99,99,99,29.75,29.51,4,1,11,0.26
2013-10-4,63.1,57.8,54.1,62.9,57.6,53.9,99,99,99,29.79,29.51,7,2,16,0.08
2013-10-5,61.9,56.2,51.8,59.8,55.0,51.5,99,96,84,30.07,29.79,5,2,13,0.00
2013-10-6,63.5,59.5,54.3,63.2,59.2,54.1,99,99,96,30.07,30.00,8,2,15,0.00
2013-10-7,70.3,62.1,57.7,65.5,61.1,57.5,99,97,79,30.05,29.97,5,2,14,0.01
2013-10-8,62.4,57.0,51.3,61.1,56.4,51.0,99,98,90,30.14,29.95,10,4,20,0.01
2013-10-9,52.7,49.5,44.2,51.7,44.7,35.4,99,84,60,30.15,29.90,15,6,31,0.01
2013-10-10,55.8,47.0,43.3,43.4,39.8,35.6,91,76,59,30.43,30.13,13,3,25,0.00
2013-10-11,52.2,48.4,43.9,47.8,44.4,38.4,93,86,79,30.50,30.42,7,3,14,0.00
2013-10-12,54.7,50.8,47.7,52.6,50.0,46.6,99,97,89,30.47,30.26,8,4,17,0.00
2013-10-13,54.7,50.7,48.0,53.5,50.2,47.8,99,98,89,30.26,30.02,9,3,19,0.09
2013-10-14,54.0,51.5,48.7,53.7,51.2,48.5,99,99,99,30.03,29.91,7,3,14,0.01
2013-10-15,53.4,50.1,43.3,53.2,49.8,43.1,99,99,98,29.99,29.88,4,1,10,0.01
2013-10-16,52.5,47.6,15.3,52.3,47.4,15.1,99,99,99,29.97,29.56,6,2,13,0.72
2013-10-17,50.4,48.2,45.7,50.1,47.6,-5.1,99,98,10,29.96,29.61,5,1,26,0.24
2013-10-18,52.9,50.4,47.5,52.6,50.1,47.2,99,99,99,29.99,29.67,6,2,11,0.13
2013-10-19,55.0,52.9,10.9,54.8,52.4,-7.1,99,98,10,29.67,29.43,101,2,101,0.52
2013-10-20,57.9,52.2,48.0,57.7,51.9,47.8,99,99,99,29.47,29.39,3,0,14,0.14
2013-10-21,55.6,52.4,48.7,55.3,52.2,48.3,99,99,99,29.50,29.24,6,1,13,0.20
2013-10-22,60.1,56.2,52.7,59.8,55.9,52.4,99,99,99,29.25,29.07,3,0,8,0.33
2013-10-23,55.6,51.6,45.0,55.3,50.9,-0.6,99,98,10,29.52,28.97,12,3,26,0.04
2013-10-24,55.8,48.4,44.8,52.6,47.7,44.5,99,98,83,29.89,29.53,7,2,18,0.00
2013-10-25,63.5,53.1,49.1,63.2,52.8,48.8,99,99,99,29.84,29.28,8,2,12,0.00
2013-10-26,55.8,52.0,45.9,54.8,51.3,45.6,99,97,87,29.42,29.13,5,2,9,0.85
2013-10-27,54.7,49.2,43.2,53.3,48.9,42.9,99,99,95,29.14,28.82,12,3,21,0.00
2013-10-28,52.9,47.9,45.3,52.4,47.5,45.1,99,99,92,29.30,28.86,11,3,19,0.00
2013-10-29,50.9,45.8,41.5,47.7,44.8,41.3,99,96,84,29.85,29.30,9,4,21,0.00
2013-10-30,54.5,46.7,37.9,54.0,46.0,37.7,99,98,87,29.90,29.57,6,2,17,0.00
2013-10-31,53.6,46.5,42.3,50.9,45.7,42.0,99,97,85,29.78,29.57,12,2,20,0.00
2013-11-1,51.1,45.0,40.3,49.2,44.2,40.0,99,97,87,29.58,29.53,8,3,21,0.00
2013-11-2,45.9,41.1,34.3,45.6,40.8,34.1,99,99,99,29.53,28.83,9,2,19,0.00
2013-11-3,47.7,42.9,35.2,44.2,41.1,35.0,99,93,77,29.26,28.92,13,6,27,0.00
2013-11-4,45.9,37.8,33.1,42.9,36.9,32.8,99,96,86,29.35,29.19,4,1,10,0.00
2013-11-5,42.4,36.5,30.4,42.2,36.3,30.1,99,99,99,29.32,29.16,8,1,17,0.00
2013-11-6,46.6,41.1,37.2,46.3,40.8,37.0,99,99,99,29.35,29.21,7,1,14,0.00
2013-11-7,47.8,42.7,37.4,45.8,41.9,37.1,99,97,85,29.45,29.34,8,2,21,0.18
2013-11-8,48.4,41.7,35.8,47.6,41.4,35.5,99,99,91,29.52,29.43,7,1,15,0.02
2013-11-9,42.6,36.8,32.4,42.4,36.5,32.1,99,99,99,29.64,29.48,5,1,11,0.01
2013-11-10,43.0,36.7,31.3,41.6,36.3,31.0,99,98,94,30.11,29.64,7,1,11,0.01
2013-11-11,56.3,47.8,39.0,56.0,47.4,38.8,99,99,94,30.00,29.79,10,2,17,0.07
2013-11-12,49.3,44.7,41.5,47.4,44.1,41.3,99,98,85,30.33,29.99,11,4,23,0.02
2013-11-13,49.1,45.7,41.7,48.5,44.7,41.5,99,97,84,30.35,29.77,8,3,17,0.04
2013-11-14,46.8,43.5,37.9,46.3,39.1,35.1,99,85,67,30.46,29.75,11,5,25,0.00
2013-11-15,51.4,47.8,39.0,51.2,47.6,38.8,99,99,98,30.46,30.32,11,4,19,0.00
2013-11-16,53.8,50.5,43.0,53.1,50.2,42.7,99,99,97,30.35,30.19,11,5,21,0.00
2013-11-17,43.3,39.4,34.3,43.1,39.2,34.1,99,99,99,30.36,29.90,2,0,6,0.06
2013-11-18,43.9,38.5,32.7,43.6,38.0,32.5,99,98,86,29.91,29.73,7,1,14,0.00
2013-11-19,41.4,34.3,28.8,41.1,32.9,28.5,99,95,82,30.01,29.56,5,2,16,0.08
2013-11-20,43.5,40.7,37.0,43.3,39.1,34.4,99,94,80,29.78,29.36,12,6,27,0.15
2013-11-21,42.1,37.5,31.1,35.7,33.3,29.6,97,85,73,30.15,29.79,5,1,13,0.00
2013-11-22,35.4,31.2,26.8,35.2,30.9,26.6,99,99,93,30.27,30.15,4,1,8,0.00
2013-11-23,39.6,36.1,32.0,39.3,35.9,31.8,99,99,99,30.44,30.26,2,0,6,0.00
2013-11-24,41.2,36.5,32.0,40.9,36.3,31.8,99,99,99,30.70,30.44,2,0,4,0.00
2013-11-25,37.4,33.2,28.4,37.1,33.0,28.2,99,99,99,30.73,30.68,3,1,7,0.00
2013-11-26,50.9,45.4,34.2,50.6,45.2,33.9,99,99,99,30.69,30.49,8,3,17,0.05
2013-11-27,52.5,50.1,47.5,52.3,49.9,47.2,99,99,99,30.52,30.45,8,3,16,0.00
2013-11-28,47.3,41.0,37.4,47.0,40.7,37.1,99,99,99,30.61,30.33,4,1,9,0.00
2013-11-29,47.3,43.6,39.7,47.0,41.7,36.3,99,93,78,30.32,30.07,13,6,24,0.08
2013-11-30,46.8,42.2,36.1,46.5,41.2,34.7,99,96,83,30.39,30.29,100,3,100,0.00
2013-12-1,47.3,43.1,37.6,47.0,42.9,37.3,99,99,99,30.57,30.33,4,1,11,0.01
2013-12-2,47.7,44.4,37.2,47.4,44.1,37.0,99,99,99,30.57,30.30,6,2,14,0.00
2013-12-3,50.0,47.1,40.8,49.7,46.8,40.6,99,99,99,30.30,30.07,7,3,14,0.09
2013-12-4,43.2,39.7,34.9,42.7,39.3,30.6,99,98,64,30.26,30.02,10,4,20,0.02
2013-12-5,47.5,39.1,32.7,47.2,37.4,-15.5,99,94,10,30.09,29.37,27,9,52,3.06
2013-12-6,36.1,33.9,30.7,33.7,30.8,26.9,99,88,76,30.30,30.10,10,2,22,0.00
2013-12-7,48.2,39.6,33.3,47.9,39.3,33.0,99,99,99,30.20,29.90,5,2,17,0.02
2013-12-8,53.6,50.6,47.8,53.3,50.3,47.6,99,99,99,29.92,29.80,8,5,21,0.20
2013-12-9,52.7,51.0,46.6,52.4,50.7,46.3,99,99,97,30.17,29.91,7,3,17,0.01
2013-12-10,52.9,50.2,48.0,52.6,49.8,47.5,99,98,93,30.17,30.11,6,2,14,0.00
2013-12-11,52.0,47.6,40.3,51.7,47.2,40.0,99,98,91,30.20,29.99,99,2,99,0.00
2013-12-12,54.9,51.8,44.8,54.6,51.1,42.3,99,97,76,29.99,29.88,4,2,14,0.17
2013-12-13,56.5,51.2,42.1,56.2,50.9,41.6,99,99,96,29.89,29.67,7,2,15,0.02
2013-12-14,52.2,45.7,38.5,50.8,45.4,38.2,99,99,92,29.88,29.38,11,3,23,0.27
2013-12-15,49.5,44.0,39.4,48.7,43.4,39.1,99,98,90,29.83,29.48,14,3,27,0.22
2013-12-16,51.3,42.1,18.9,47.8,41.3,-3.4,99,98,10,29.93,29.47,56,3,56,0.07
2013-12-17,45.0,40.7,37.0,43.3,39.4,29.5,99,94,10,30.08,29.72,100,3,100,0.01
2013-12-18,52.5,47.7,42.6,52.3,46.6,38.7,99,96,82,29.72,28.70,10,3,27,0.13
2013-12-19,43.9,38.2,35.2,40.6,37.0,34.8,99,96,84,29.47,28.79,9,4,22,0.07
2013-12-20,51.1,43.3,36.9,50.8,43.1,36.6,99,99,98,29.70,29.30,12,3,24,0.40
2013-12-21,47.7,44.0,39.4,47.4,43.2,39.1,99,97,89,29.44,29.23,8,3,19,0.21
2013-12-22,79.9,38.2,34.5,79.0,37.9,34.3,99,99,96,29.50,29.26,21,3,21,0.09
2013-12-23,49.3,40.9,35.1,49.0,40.7,34.8,99,99,99,29.49,28.27,8,3,17,0.14
2013-12-24,49.1,40.7,37.8,48.8,37.8,32.5,99,90,70,28.43,28.20,11,5,23,0.04
2013-12-25,43.9,40.8,38.3,42.1,39.6,38.0,99,96,86,29.04,28.41,10,4,24,0.09
2013-12-26,41.5,38.2,34.7,41.3,37.7,34.5,99,98,91,29.26,28.63,8,2,16,0.00
2013-12-27,46.0,43.1,38.5,45.8,42.8,38.2,99,99,96,28.67,28.12,10,5,23,0.30
2013-12-28,42.1,41.1,39.4,41.8,40.8,-12.0,99,99,97,29.44,28.67,151,5,151,0.01
2013-12-29,45.9,40.9,38.3,45.6,40.6,38.0,99,99,96,29.76,29.44,5,2,14,0.02
2013-12-30,48.7,43.0,37.6,48.5,42.7,37.3,99,99,99,29.58,29.26,9,3,20,0.47
2013-12-31,45.0,41.4,36.9,44.5,41.1,36.6,99,99,97,29.57,29.22,8,2,15,0.08
2014-1-1,46.6,40.8,36.7,46.3,40.5,36.4,99,99,99,29.27,28.64,194,3,194,0.12
2014-1-2,45.5,42.3,38.1,45.2,42.0,37.9,99,99,98,29.10,28.64,8,3,18,0.00